Hanamaulu, HI

4:04 PM HST on April 24, 2015 (GMT -1000)
Lihue | | Change Station
CLOSE
Current Station
Airport
Location: Lihue,
Elevation: 102 ft
Nearby Weather Stations

Elev 102 ft 21.98 °N, 159.34 °W | Updated 4 minutes ago

Overcast
Overcast
79 °F
Feels Like 79 °F
N
10
Wind Variable Wind from SE

Today
High -- | Low -- °F
--% Chance of Precip.
Yesterday
High -- | Low -- °F
Precip. -- in
6:10 AM 7:00 PM
Waxing Crescent, 41% visible
Pressure 29.95 in
Visibility 10.0 miles
Clouds Scattered Clouds 3000 ft
Mostly Cloudy 5000 ft
Overcast 6500 ft
Dew Point 68 °F
Humidity 69%
Rainfall 0.00 in
Snow Depth Not available.
UV 2 out of 12
Pollen Not available.
Air Quality Not available.
Flu Activity Regional
SPECI PHLI 250200Z 14009KT 10SM SCT030 BKN050 OVC065 26/20 A2995 RMK AO2

More Conditions Fewer Conditions

Pressure 29.95 in
Visibility 10.0 miles
Clouds Scattered Clouds 3000 ft
Mostly Cloudy 5000 ft
Overcast 6500 ft
Dew Point 68 °F
Humidity 69%
Rainfall 0.00 in
Snow Depth Not available.
UV 2 out of 12
Pollen Not available.
Air Quality Not available.
Flu Activity Regional
SPECI PHLI 250200Z 14009KT 10SM SCT030 BKN050 OVC065 26/20 A2995 RMK AO2

More Conditions Fewer Conditions

10-Day Weather Forecast

Almanac

Astronomy

Apr. 24, 2015 Rise Set
Actual Time
Civil Twilight
Nautical Twilight
Astronomical Twilight
Moon
Length of Visible Light
Length of Day
Tomorrow will be .
, % of the Moon is Illuminated

Today's Extremes

State Highs State Lows

Community

WunderPhotos

Upload Photos

1,816,566 photos uploaded!

WunderBlogs® & News

Nearby

Air Quality

  Air Quality AQ Index Pollutant
Not available.

Snow Depth

Station Depth Elevation

Earthquake Activity

City Distance Mag. Time & Date
Minimum magnitude displayed is 2.5.

Coastal Water Temperatures

Place Temperature

Stations

Nearby Weather Stations

Station Location Temp. Windchill Dew Point Humidity Wind Precip. Elev Updated Type